createdAt,value
2023-04-07T00:00:55.882Z,62.47
2023-04-07T00:04:04.495Z,63.36
2023-04-07T00:07:12.901Z,62.97
2023-04-07T00:10:22.550Z,63.25
2023-04-07T00:13:30.944Z,62.86
2023-04-07T00:16:39.086Z,63.62
2023-04-07T00:19:47.206Z,63.20
2023-04-07T00:22:55.326Z,63.28
2023-04-07T00:26:04.970Z,63.44
2023-04-07T00:29:13.148Z,63.51
2023-04-07T00:32:21.334Z,64.21
2023-04-07T00:35:29.496Z,64.31
2023-04-07T00:38:37.640Z,64.69
2023-04-07T00:41:47.588Z,64.61
2023-04-07T00:44:55.741Z,65.21
2023-04-07T00:48:04.217Z,64.80
2023-04-07T00:51:12.903Z,65.30
2023-04-07T00:54:21.694Z,65.94
2023-04-07T00:57:31.500Z,65.26
2023-04-07T01:00:56.468Z,65.02
2023-04-07T01:04:13.970Z,63.65
2023-04-07T01:07:29.901Z,63.68
2023-04-07T01:11:03.604Z,62.38
2023-04-07T01:14:17.512Z,62.20
2023-04-07T01:17:29.793Z,62.93
2023-04-07T01:20:41.510Z,62.63
2023-04-07T01:24:04.908Z,62.40
2023-04-07T01:27:26.270Z,62.58
2023-04-07T01:30:41.253Z,62.48
2023-04-07T01:33:52.182Z,61.60
2023-04-07T01:37:03.746Z,62.18
2023-04-07T01:40:13.605Z,61.87
2023-04-07T01:43:24.504Z,62.07
2023-04-07T01:46:34.202Z,61.79
2023-04-07T01:49:43.135Z,62.45
2023-04-07T01:52:51.758Z,61.38
2023-04-07T01:55:59.842Z,61.19
2023-04-07T01:59:08.568Z,60.83
2023-04-07T02:02:18.522Z,61.35
2023-04-07T02:05:30.933Z,60.09
2023-04-07T02:08:50.079Z,61.22
2023-04-07T02:12:02.170Z,61.84
2023-04-07T02:15:16.982Z,61.90
2023-04-07T02:18:29.154Z,62.45
2023-04-07T02:21:38.257Z,62.14
2023-04-07T02:24:46.589Z,62.65
2023-04-07T02:27:56.397Z,62.59
2023-04-07T02:31:04.620Z,62.63
2023-04-07T02:34:15.498Z,61.99
2023-04-07T02:37:23.701Z,61.91
2023-04-07T02:40:32.045Z,63.17
2023-04-07T02:43:40.289Z,62.12
2023-04-07T02:46:48.418Z,62.63
2023-04-07T02:49:57.970Z,62.86
2023-04-07T02:53:06.926Z,63.93
2023-04-07T02:56:16.525Z,65.00
2023-04-07T02:59:24.908Z,66.07
2023-04-07T03:02:33.215Z,66.59
2023-04-07T03:05:42.989Z,66.21
2023-04-07T03:08:52.712Z,66.50
2023-04-07T03:12:02.237Z,66.24
2023-04-07T03:15:17.068Z,66.68
2023-04-07T03:18:29.225Z,66.51
2023-04-07T03:21:43.744Z,67.17
2023-04-07T03:24:52.252Z,66.58
2023-04-07T03:28:03.475Z,67.00
2023-04-07T03:31:15.618Z,66.84
2023-04-07T03:34:23.857Z,67.13
2023-04-07T03:37:33.417Z,67.47
2023-04-07T03:40:41.607Z,66.72
2023-04-07T03:43:50.082Z,66.40
2023-04-07T03:46:59.339Z,67.62
2023-04-07T03:50:10.384Z,67.26
2023-04-07T03:53:30.254Z,67.77
2023-04-07T03:56:40.214Z,67.50
2023-04-07T03:59:51.439Z,67.60
2023-04-07T04:03:00.866Z,68.19
2023-04-07T04:06:09.699Z,67.99
2023-04-07T04:09:20.816Z,67.97
2023-04-07T04:12:30.352Z,68.15
2023-04-07T04:15:47.363Z,69.03
2023-04-07T04:18:57.610Z,69.38
2023-04-07T04:22:07.459Z,69.42
2023-04-07T04:25:23.965Z,69.48
2023-04-07T04:28:38.468Z,69.62
2023-04-07T04:31:49.365Z,69.45
2023-04-07T04:34:58.685Z,69.46
2023-04-07T04:38:08.229Z,69.92
2023-04-07T04:41:19.507Z,69.80
2023-04-07T04:44:30.226Z,69.74
2023-04-07T04:47:40.445Z,69.42
2023-04-07T04:50:48.865Z,69.99
2023-04-07T04:53:57.248Z,70.42
2023-04-07T04:57:09.254Z,70.27
2023-04-07T05:00:20.438Z,69.74
2023-04-07T05:03:32.095Z,69.88
2023-04-07T05:06:45.726Z,69.70
2023-04-07T05:09:56.738Z,70.05
2023-04-07T05:13:07.280Z,70.06
2023-04-07T05:16:18.033Z,70.22
2023-04-07T05:19:27.263Z,71.89
2023-04-07T05:22:38.894Z,71.61
2023-04-07T05:25:49.829Z,71.16
2023-04-07T05:28:59.375Z,71.73
2023-04-07T05:32:07.955Z,71.78
2023-04-07T05:35:17.779Z,72.86
2023-04-07T05:38:32.814Z,73.10
2023-04-07T05:41:48.784Z,74.56
2023-04-07T05:44:59.152Z,75.01
2023-04-07T05:48:08.994Z,75.52
2023-04-07T05:51:23.268Z,76.14
2023-04-07T05:54:34.040Z,75.04
2023-04-07T05:57:45.324Z,75.65
2023-04-07T06:00:55.916Z,74.97
2023-04-07T06:04:04.377Z,74.66
2023-04-07T06:07:12.630Z,73.60
2023-04-07T06:10:24.352Z,72.92
2023-04-07T06:13:35.127Z,72.37
2023-04-07T06:16:46.237Z,70.74
2023-04-07T06:19:54.656Z,70.61
2023-04-07T06:23:02.885Z,70.24
2023-04-07T06:26:13.017Z,69.69
2023-04-07T06:29:21.213Z,70.46
2023-04-07T06:32:31.724Z,69.76
2023-04-07T06:35:41.802Z,69.30
2023-04-07T06:38:50.024Z,68.94
2023-04-07T06:41:58.217Z,67.95
2023-04-07T06:45:07.714Z,66.92
2023-04-07T06:48:17.217Z,65.80
2023-04-07T06:51:26.335Z,64.52
2023-04-07T06:54:34.728Z,64.93
2023-04-07T06:57:42.834Z,63.53
2023-04-07T07:00:51.051Z,63.54
2023-04-07T07:04:00.733Z,62.81
2023-04-07T07:07:08.993Z,62.96
2023-04-07T07:10:17.378Z,62.79
2023-04-07T07:13:27.768Z,62.66
2023-04-07T07:16:37.201Z,62.46
2023-04-07T07:19:46.670Z,61.91
2023-04-07T07:22:54.802Z,61.20
2023-04-07T07:26:04.162Z,60.46
2023-04-07T07:29:13.066Z,60.20
2023-04-07T07:32:22.130Z,60.64
2023-04-07T07:35:32.750Z,60.17
2023-04-07T07:38:42.246Z,60.09
2023-04-07T07:41:51.198Z,60.43
2023-04-07T07:45:00.327Z,59.79
2023-04-07T07:48:08.663Z,58.89
2023-04-07T07:51:18.745Z,57.48
2023-04-07T07:54:27.189Z,56.15
2023-04-07T07:57:35.289Z,56.53
2023-04-07T08:00:43.734Z,56.84
2023-04-07T08:03:52.441Z,56.31
2023-04-07T08:07:02.683Z,55.88
2023-04-07T08:10:11.704Z,56.03
2023-04-07T08:13:20.058Z,55.77
2023-04-07T08:16:28.315Z,56.48
2023-04-07T08:19:36.757Z,55.43
2023-04-07T08:22:47.054Z,54.28
2023-04-07T08:25:55.517Z,52.92
2023-04-07T08:29:03.732Z,52.65
2023-04-07T08:32:11.904Z,51.60
2023-04-07T08:35:20.409Z,51.27
2023-04-07T08:38:31.311Z,49.26
2023-04-07T08:41:44.692Z,50.37
2023-04-07T08:44:57.179Z,49.46
2023-04-07T08:48:16.598Z,48.32
2023-04-07T08:51:30.229Z,47.40
2023-04-07T08:54:39.988Z,47.63
2023-04-07T08:57:48.944Z,45.65
2023-04-07T09:00:57.704Z,45.35
2023-04-07T09:04:07.722Z,45.74
2023-04-07T09:07:16.234Z,44.63
2023-04-07T09:10:25.809Z,45.27
2023-04-07T09:13:34.270Z,43.53
2023-04-07T09:16:43.050Z,45.13
2023-04-07T09:19:52.443Z,44.22
2023-04-07T09:23:00.526Z,43.72
2023-04-07T09:26:25.195Z,45.21
2023-04-07T09:29:33.524Z,45.29
2023-04-07T09:32:42.823Z,45.34
2023-04-07T09:35:54.216Z,47.92
2023-04-07T09:39:10.716Z,45.40
2023-04-07T09:42:20.578Z,42.19
2023-04-07T09:45:35.185Z,41.44
2023-04-07T09:48:46.961Z,43.81
2023-04-07T09:51:58.194Z,42.30
2023-04-07T09:55:08.728Z,41.72
2023-04-07T09:58:18.987Z,42.42
2023-04-07T10:01:27.573Z,40.56
2023-04-07T10:04:36.120Z,41.46
2023-04-07T10:07:44.656Z,42.14
2023-04-07T10:10:53.524Z,41.00
2023-04-07T10:14:03.497Z,44.23
2023-04-07T10:17:12.268Z,41.89
2023-04-07T10:20:22.928Z,44.36
2023-04-07T10:23:47.450Z,45.28
2023-04-07T10:27:02.613Z,41.86
2023-04-07T10:30:19.846Z,42.56
2023-04-07T10:33:49.625Z,44.20
2023-04-07T10:37:14.274Z,43.65
2023-04-07T10:40:30.607Z,45.71
2023-04-07T10:43:41.669Z,45.85
2023-04-07T10:47:06.408Z,45.54
2023-04-07T10:50:23.828Z,44.39
2023-04-07T10:53:32.887Z,43.49
2023-04-07T10:57:10.690Z,42.39
2023-04-07T11:00:20.619Z,43.09
2023-04-07T11:03:32.594Z,47.86
2023-04-07T11:06:49.097Z,44.10
2023-04-07T11:10:11.646Z,41.53
2023-04-07T11:13:20.169Z,42.33
2023-04-07T11:16:40.466Z,40.44
2023-04-07T11:19:57.582Z,39.43
2023-04-07T11:23:05.978Z,42.02
2023-04-07T11:26:16.674Z,40.13
2023-04-07T11:29:30.495Z,38.06
2023-04-07T11:32:38.886Z,36.61
2023-04-07T11:35:57.943Z,37.87
2023-04-07T11:39:06.556Z,41.12
2023-04-07T11:42:14.974Z,43.44
2023-04-07T11:45:23.383Z,42.20
2023-04-07T11:48:33.348Z,42.77
2023-04-07T11:51:45.571Z,43.26
2023-04-07T11:54:54.254Z,43.84
2023-04-07T11:58:10.635Z,42.00
2023-04-07T12:01:19.700Z,42.86
2023-04-07T12:04:28.638Z,44.57
2023-04-07T12:07:39.645Z,43.63
2023-04-07T12:10:48.433Z,42.50
2023-04-07T12:13:56.884Z,42.37
2023-04-07T12:17:07.732Z,40.79
2023-04-07T12:20:17.485Z,38.74
2023-04-07T12:23:27.742Z,42.73
2023-04-07T12:26:36.138Z,45.30
2023-04-07T12:29:44.555Z,47.20
2023-04-07T12:32:55.669Z,43.61
2023-04-07T12:36:04.375Z,41.57
2023-04-07T12:39:14.511Z,42.64
2023-04-07T12:42:26.366Z,41.45
2023-04-07T12:45:35.092Z,40.27
2023-04-07T12:48:44.073Z,38.30
2023-04-07T12:51:53.081Z,37.67
2023-04-07T12:55:03.009Z,37.43
2023-04-07T12:58:12.226Z,36.97
2023-04-07T13:01:20.857Z,43.48
2023-04-07T13:04:30.973Z,44.45
2023-04-07T13:07:39.609Z,42.62
2023-04-07T13:10:49.671Z,41.80
2023-04-07T13:14:00.568Z,41.24
2023-04-07T13:17:11.783Z,40.16
2023-04-07T13:20:21.743Z,39.31
2023-04-07T13:23:39.374Z,40.61
2023-04-07T13:26:52.652Z,41.94
2023-04-07T13:30:01.234Z,42.52
2023-04-07T13:33:09.793Z,41.95
2023-04-07T13:36:20.025Z,40.29
2023-04-07T13:39:30.663Z,40.80
2023-04-07T13:42:41.184Z,41.37
2023-04-07T13:45:50.970Z,42.71
2023-04-07T13:48:59.930Z,44.42
2023-04-07T13:52:08.431Z,44.07
2023-04-07T13:55:20.282Z,43.61
2023-04-07T13:58:31.621Z,43.78
2023-04-07T14:01:40.771Z,43.07
2023-04-07T14:04:49.293Z,43.95
2023-04-07T14:07:57.666Z,43.27
2023-04-07T14:11:05.920Z,43.78
2023-04-07T14:14:15.810Z,44.01
2023-04-07T14:17:24.750Z,44.05
2023-04-07T14:20:33.257Z,43.90
2023-04-07T14:23:42.273Z,44.35
2023-04-07T14:26:51.091Z,43.75
2023-04-07T14:30:01.257Z,44.44
2023-04-07T14:33:09.481Z,45.13
2023-04-07T14:36:18.093Z,44.99
2023-04-07T14:39:26.739Z,43.83
2023-04-07T14:42:35.742Z,44.29
2023-04-07T14:45:45.566Z,43.82
2023-04-07T14:48:53.888Z,44.59
2023-04-07T14:52:02.262Z,45.09
2023-04-07T14:55:10.848Z,45.30
2023-04-07T14:58:19.128Z,44.97
2023-04-07T15:01:29.163Z,46.20
2023-04-07T15:04:38.855Z,45.92
2023-04-07T15:07:49.910Z,46.59
2023-04-07T15:10:58.324Z,45.57
2023-04-07T15:14:07.089Z,45.22
2023-04-07T15:17:17.068Z,46.08
2023-04-07T15:20:26.261Z,45.86
2023-04-07T15:23:34.983Z,46.19
2023-04-07T15:26:43.518Z,45.44
2023-04-07T15:29:52.771Z,46.37
2023-04-07T15:33:05.656Z,47.74
2023-04-07T15:36:14.466Z,47.01
2023-04-07T15:39:23.151Z,47.65
2023-04-07T15:42:33.693Z,48.78
2023-04-07T15:45:44.250Z,48.67
2023-04-07T15:48:54.748Z,49.39
2023-04-07T15:52:04.984Z,49.78
2023-04-07T15:55:13.391Z,51.90
2023-04-07T15:58:23.267Z,50.23
2023-04-07T16:01:32.686Z,50.84
2023-04-07T16:04:42.931Z,52.20
2023-04-07T16:07:51.369Z,51.30
2023-04-07T16:10:59.797Z,51.47
2023-04-07T16:14:14.469Z,52.07
2023-04-07T16:17:23.671Z,51.80
2023-04-07T16:20:34.192Z,52.50
2023-04-07T16:23:42.680Z,52.54
2023-04-07T16:26:52.486Z,52.92
2023-04-07T16:30:00.946Z,52.68
2023-04-07T16:33:09.445Z,54.55
2023-04-07T16:36:19.369Z,54.31
2023-04-07T16:39:29.562Z,54.65
2023-04-07T16:42:38.342Z,54.26
2023-04-07T16:45:52.418Z,54.38
2023-04-07T16:49:03.290Z,54.51
2023-04-07T16:52:13.384Z,54.96
2023-04-07T16:55:21.992Z,54.70
2023-04-07T16:58:30.725Z,54.68
2023-04-07T17:01:42.038Z,55.86
2023-04-07T17:04:50.735Z,55.85
2023-04-07T17:08:00.679Z,55.74
2023-04-07T17:11:10.416Z,55.54
2023-04-07T17:14:18.632Z,56.10
2023-04-07T17:17:27.138Z,56.61
2023-04-07T17:20:35.625Z,56.24
2023-04-07T17:23:45.710Z,56.95
2023-04-07T17:26:54.427Z,56.32
2023-04-07T17:30:03.360Z,56.83
2023-04-07T17:33:12.521Z,56.99
2023-04-07T17:36:21.199Z,56.84
2023-04-07T17:39:31.113Z,56.62
2023-04-07T17:42:40.048Z,56.67
2023-04-07T17:45:48.546Z,56.72
2023-04-07T17:48:59.107Z,57.30
2023-04-07T17:52:07.628Z,58.35
2023-04-07T17:55:22.397Z,59.01
2023-04-07T17:58:30.812Z,59.34
2023-04-07T18:01:39.754Z,59.29
2023-04-07T18:04:48.528Z,60.16
2023-04-07T18:07:57.187Z,60.47
2023-04-07T18:11:07.363Z,61.33
2023-04-07T18:14:16.533Z,61.48
2023-04-07T18:17:24.831Z,62.23
2023-04-07T18:20:33.142Z,63.20
2023-04-07T18:23:41.993Z,62.91
2023-04-07T18:26:51.752Z,63.40
2023-04-07T18:29:59.999Z,64.81
2023-04-07T18:33:08.793Z,64.95
2023-04-07T18:36:17.432Z,65.91
2023-04-07T18:39:28.170Z,66.99
2023-04-07T18:42:37.825Z,67.33
2023-04-07T18:45:47.063Z,67.92
2023-04-07T18:48:55.582Z,68.12
2023-04-07T18:52:05.640Z,68.26
2023-04-07T18:55:13.992Z,68.55
2023-04-07T18:58:23.652Z,68.78
2023-04-07T19:01:32.342Z,69.17
2023-04-07T19:04:40.650Z,68.72
2023-04-07T19:07:49.326Z,68.35
2023-04-07T19:10:57.546Z,68.54
2023-04-07T19:14:07.264Z,69.18
2023-04-07T19:17:15.780Z,69.09
2023-04-07T19:20:24.263Z,69.22
2023-04-07T19:23:32.754Z,69.36
2023-04-07T19:26:41.078Z,69.90
2023-04-07T19:29:52.059Z,69.89
2023-04-07T19:33:00.669Z,70.38
2023-04-07T19:36:09.191Z,70.03
2023-04-07T19:39:17.486Z,70.73
2023-04-07T19:42:26.380Z,70.53
2023-04-07T19:45:36.665Z,71.34
2023-04-07T19:48:45.551Z,71.11
2023-04-07T19:51:54.895Z,72.05
2023-04-07T19:55:06.181Z,71.84
2023-04-07T19:58:17.110Z,72.21
2023-04-07T20:01:27.297Z,72.88
2023-04-07T20:04:36.287Z,72.46
2023-04-07T20:07:44.828Z,72.15
2023-04-07T20:10:53.573Z,72.27
2023-04-07T20:14:02.073Z,72.36
2023-04-07T20:17:12.735Z,72.42
2023-04-07T20:20:22.464Z,72.26
2023-04-07T20:23:31.345Z,72.32
2023-04-07T20:26:39.658Z,72.64
2023-04-07T20:29:48.018Z,72.90
2023-04-07T20:32:58.089Z,72.89
2023-04-07T20:36:07.065Z,74.31
2023-04-07T20:39:15.304Z,73.93
2023-04-07T20:42:23.555Z,74.00
2023-04-07T20:45:31.816Z,73.86
2023-04-07T20:48:41.609Z,73.35
2023-04-07T20:51:49.936Z,73.19
2023-04-07T20:54:58.427Z,73.23
2023-04-07T20:58:06.835Z,72.97
2023-04-07T21:01:15.892Z,73.40
2023-04-07T21:04:25.861Z,74.12
2023-04-07T21:07:34.495Z,74.84
2023-04-07T21:10:43.135Z,74.84
2023-04-07T21:13:51.295Z,75.56
2023-04-07T21:17:00.039Z,75.65
2023-04-07T21:20:12.879Z,75.49
2023-04-07T21:23:21.289Z,76.05
2023-04-07T21:26:29.842Z,77.21
2023-04-07T21:29:40.285Z,77.04
2023-04-07T21:32:48.664Z,77.32
2023-04-07T21:35:58.771Z,77.10
2023-04-07T21:39:08.211Z,77.35
2023-04-07T21:42:17.455Z,78.10
2023-04-07T21:45:25.829Z,78.86
2023-04-07T21:48:34.955Z,79.40
2023-04-07T21:51:44.562Z,78.60
2023-04-07T21:54:52.744Z,78.65
2023-04-07T21:58:01.436Z,78.22
2023-04-07T22:01:12.360Z,78.68
2023-04-07T22:04:21.796Z,78.78
2023-04-07T22:07:31.487Z,79.32
2023-04-07T22:10:40.330Z,79.37
2023-04-07T22:13:48.408Z,78.95
2023-04-07T22:16:56.848Z,78.51
2023-04-07T22:20:05.820Z,78.13
2023-04-07T22:23:15.475Z,78.12
2023-04-07T22:26:24.275Z,78.19
2023-04-07T22:29:32.508Z,79.48
2023-04-07T22:32:41.493Z,80.19
2023-04-07T22:35:49.767Z,80.94
2023-04-07T22:38:59.765Z,80.75
2023-04-07T22:42:08.398Z,80.75
2023-04-07T22:45:17.276Z,81.85
2023-04-07T22:48:27.924Z,82.14
2023-04-07T22:51:37.249Z,82.19
2023-04-07T22:54:47.391Z,82.03
2023-04-07T22:57:55.900Z,82.93
2023-04-07T23:01:04.324Z,82.73
2023-04-07T23:04:12.523Z,82.79
2023-04-07T23:07:20.674Z,83.04
2023-04-07T23:10:33.140Z,83.03
2023-04-07T23:13:41.546Z,83.05
2023-04-07T23:16:50.011Z,83.26
2023-04-07T23:19:58.308Z,83.22
2023-04-07T23:23:06.532Z,83.79
2023-04-07T23:26:16.117Z,83.40
2023-04-07T23:29:24.351Z,82.91
2023-04-07T23:32:32.588Z,82.68
2023-04-07T23:35:40.971Z,82.03
2023-04-07T23:38:49.314Z,83.10
2023-04-07T23:41:59.449Z,82.81
2023-04-07T23:45:09.022Z,83.42
2023-04-07T23:48:17.164Z,83.78
2023-04-07T23:51:25.378Z,84.41
2023-04-07T23:54:33.571Z,83.86
2023-04-07T23:57:43.038Z,84.57
